Main page
METAR-TAF:

METAR-TAF

Airports :

Leipzig–Altenburg Airport

Altenburg, Germany

latitude: 50-58N, longitude: 012-30E, elevation: 195 m

Current weather observation

The report was made 21 minutes ago, at 07:50 UTC
Wind 12 kt from the Southwest
Temperature 13°C
Humidity 62%
Pressure 1021 hPa
Visibility 10 km or more
Scattered clouds at a height of 4200 ft
Scattered clouds at a height of 5000 ft

METAR: EDAC 220750Z 22012KT 9999 SCT042 SCT050 13/06 Q1021

Time: 10:11 (08:11 UTC)

Forecast

The report was made 15 hours and 11 minutes ago, at 17:00 UTC
Forecast valid from 21 at 18 UTC to 22 at 03 UTC
Wind 15 kt from the Northwest with gusts up to 25 kt
Visibility 10 km or more
Scattered clouds at a height of 3500 ft
Becoming
from 21 at 18 UTC to 21 at 20 UTC
Wind 10 kt from the West/Southwest

TAF: EDAC 211700Z 2118/2203 31015G25KT 9999 SCT035 BECMG 2118/2120 25010KT

Weather observations and forecasts of more than 4000 airports (METAR and TAF reports).

The available stations are represented by yellow and red dots on the map.

Hover mouse over dot to see the name of the station.

Then click to see weather observations and forecasts.

To change the map : click on the green buttons with a black cross to zoom in, on the green button with a dash to zoom out, or on the green arrows for adjacent maps.


METAR-TAF: